Time;durP1;ratioP1;P1;durP2;ratioP2;P2;SDS_P1;SDS_P2;PMS_P1;PMS_P2;Temp;Humidity;BMP_temperature;BMP_pressure;BME280_temperature;BME280_humidity;BME280_pressure;Samples;Min_cycle;Max_cycle;Signal;HPM_P1;HPM_P2
2021/04/16 00:01:17;;;;;;;29.95;19.90;;;;;;;4.74;68.83;99165.30;263450;1103;114680;-81
2021/04/16 00:06:20;;;;;;;30.58;19.68;;;;;;;4.76;69.12;99167.03;263515;1099;115003;-80
2021/04/16 00:11:26;;;;;;;28.00;18.47;;;;;;;4.80;69.20;99169.49;263481;1104;114459;-80
2021/04/16 00:16:29;;;;;;;29.23;18.18;;;;;;;4.76;69.17;99154.70;263504;1099;114803;-81
2021/04/16 00:21:33;;;;;;;26.15;17.70;;;;;;;4.72;69.00;99151.33;263479;1104;114667;-82
2021/04/16 00:26:36;;;;;;;23.83;15.50;;;;;;;4.72;68.89;99150.44;263439;1099;114707;-81
2021/04/16 00:31:50;;;;;;;21.30;14.33;;;;;;;4.74;69.13;99143.34;263376;1099;115040;-81
2021/04/16 00:36:55;;;;;;;25.03;16.30;;;;;;;4.84;68.88;99152.64;263202;1104;114997;-81
2021/04/16 00:41:58;;;;;;;24.35;16.63;;;;;;;4.84;69.31;99152.64;263533;1104;114919;-72
2021/04/16 00:47:06;;;;;;;22.38;15.83;;;;;;;4.82;69.03;99148.33;263435;1099;114773;-72
2021/04/16 00:52:10;;;;;;;21.30;14.55;;;;;;;4.76;68.51;99149.44;263464;1104;114747;-73
2021/04/16 00:57:14;;;;;;;23.45;15.28;;;;;;;4.71;68.93;99144.31;263340;1099;114768;-72
2021/04/16 01:02:17;;;;;;;20.43;13.80;;;;;;;4.74;69.20;99135.44;263477;1104;114829;-81
2021/04/16 01:07:21;;;;;;;18.88;12.68;;;;;;;4.84;68.86;99142.09;263369;1099;115405;-72
2021/04/16 01:12:24;;;;;;;19.80;13.58;;;;;;;4.86;68.84;99142.05;263458;1104;115844;-72
2021/04/16 01:17:27;;;;;;;16.60;12.40;;;;;;;4.88;68.87;99140.20;263191;1099;114905;-72
2021/04/16 01:22:52;;;;;;;17.50;11.30;;;;;;;4.84;68.95;99136.81;263462;1104;114635;-72
2021/04/16 01:27:55;;;;;;;16.27;11.87;;;;;;;4.71;69.10;99143.45;263541;1104;115179;-81
2021/04/16 01:32:59;;;;;;;17.63;11.60;;;;;;;4.66;68.69;99142.78;263460;1104;114736;-78
2021/04/16 01:38:06;;;;;;;17.68;11.33;;;;;;;4.68;69.00;99143.56;263508;1099;115407;-80
2021/04/16 01:43:22;;;;;;;14.47;10.97;;;;;;;4.66;68.33;99133.09;263390;1100;114712;-81
2021/04/16 01:48:25;;;;;;;17.83;12.35;;;;;;;4.63;69.07;99130.56;263439;1099;114740;-72
2021/04/16 01:53:28;;;;;;;18.60;12.80;;;;;;;4.68;68.99;99127.75;263094;1104;114497;-72
2021/04/16 01:58:31;;;;;;;20.78;13.30;;;;;;;4.62;68.44;99128.86;263483;1099;114467;-72
2021/04/16 02:03:34;;;;;;;19.55;13.53;;;;;;;4.56;69.03;99125.58;263474;1103;114696;-72
2021/04/16 02:08:38;;;;;;;20.35;14.05;;;;;;;4.42;68.86;99123.44;263119;1100;115082;-72
2021/04/16 02:13:41;;;;;;;18.13;12.25;;;;;;;4.36;68.96;99118.38;263096;1104;115052;-72
2021/04/16 02:18:44;;;;;;;16.90;11.95;;;;;;;4.35;69.00;99121.91;263057;1099;114734;-72
2021/04/16 02:23:47;;;;;;;17.63;12.65;;;;;;;4.31;69.63;99115.04;263534;1103;114468;-71
2021/04/16 02:28:50;;;;;;;20.03;13.43;;;;;;;4.27;68.82;99114.28;263482;1099;114879;-72
2021/04/16 02:33:52;;;;;;;18.27;12.63;;;;;;;4.27;68.96;99112.51;262385;1100;114905;-83
2021/04/16 02:38:55;;;;;;;17.75;13.85;;;;;;;4.20;69.17;99107.52;263311;1099;115057;-82
2021/04/16 02:43:58;;;;;;;18.70;13.15;;;;;;;4.22;69.46;99110.97;263489;1104;114594;-82
2021/04/16 02:49:02;;;;;;;16.88;12.05;;;;;;;4.19;68.91;99111.93;263522;1099;114754;-78
2021/04/16 02:54:05;;;;;;;18.57;12.97;;;;;;;4.20;69.20;99108.38;263189;1104;114883;-82
2021/04/16 02:59:08;;;;;;;16.63;12.45;;;;;;;4.15;68.76;99106.83;263434;1099;114723;-82
2021/04/16 03:04:12;;;;;;;18.33;13.18;;;;;;;4.10;68.97;99114.88;263521;1104;114414;-73
2021/04/16 03:09:15;;;;;;;16.88;12.65;;;;;;;4.03;68.85;99116.00;263533;1102;115224;-81
2021/04/16 03:14:18;;;;;;;17.38;12.18;;;;;;;3.94;69.26;99106.66;263489;1104;114673;-82
2021/04/16 03:19:21;;;;;;;13.55;10.60;;;;;;;3.85;69.00;99112.23;263466;1098;114349;-81
2021/04/16 03:24:24;;;;;;;15.25;11.15;;;;;;;3.86;69.71;99108.67;263464;1104;114634;-82
2021/04/16 03:29:27;;;;;;;14.83;11.30;;;;;;;3.90;69.16;99114.70;263414;1099;114725;-81
2021/04/16 03:34:30;;;;;;;14.60;11.08;;;;;;;3.94;69.49;99116.30;263439;1104;114528;-81
2021/04/16 03:39:33;;;;;;;16.63;12.05;;;;;;;3.98;69.84;99110.91;263514;1104;114579;-81
2021/04/16 03:44:36;;;;;;;16.50;11.35;;;;;;;3.93;69.42;99110.19;263532;1099;114473;-72
2021/04/16 03:49:38;;;;;;;16.37;12.47;;;;;;;3.89;69.45;99115.61;263569;1104;114725;-72
2021/04/16 03:54:41;;;;;;;16.13;11.80;;;;;;;3.86;69.42;99116.57;263635;1100;114066;-71
2021/04/16 03:59:44;;;;;;;15.00;10.95;;;;;;;3.86;69.85;99115.72;263352;1104;114604;-81
2021/04/16 04:04:47;;;;;;;15.00;11.38;;;;;;;3.88;69.87;99109.50;263399;1104;114283;-82
2021/04/16 04:09:51;;;;;;;16.88;11.78;;;;;;;3.90;69.51;99114.70;263557;1102;114470;-80
2021/04/16 04:14:53;;;;;;;16.18;11.80;;;;;;;3.88;69.47;99104.23;263252;1100;114316;-80
2021/04/16 04:19:56;;;;;;;19.40;14.13;;;;;;;3.84;69.58;99113.15;263419;1104;114519;-80
2021/04/16 04:24:59;;;;;;;20.85;14.18;;;;;;;3.85;69.46;99122.76;261906;1100;114437;-73
2021/04/16 04:30:05;;;;;;;18.05;12.65;;;;;;;3.84;69.63;99121.05;263550;1102;115102;-73
2021/04/16 04:35:09;;;;;;;19.73;13.55;;;;;;;3.86;70.06;99113.94;263420;1100;114813;-74
2021/04/16 04:40:13;;;;;;;22.15;14.60;;;;;;;3.95;69.92;99111.00;263500;1104;115160;-71
2021/04/16 04:45:17;;;;;;;22.08;14.03;;;;;;;4.00;69.45;99108.20;262122;1100;114576;-73
2021/04/16 04:50:21;;;;;;;21.93;13.90;;;;;;;3.94;69.29;99111.04;262573;1105;114607;-73
2021/04/16 04:55:27;;;;;;;22.38;13.85;;;;;;;3.87;69.55;99107.75;263007;1104;114696;-73
2021/04/16 05:00:31;;;;;;;19.85;11.75;;;;;;;3.81;69.46;99101.86;263507;1101;114585;-71
2021/04/16 05:05:34;;;;;;;18.20;12.45;;;;;;;3.85;69.78;99116.64;263174;1100;114637;-72
2021/04/16 05:10:37;;;;;;;16.85;11.63;;;;;;;3.86;69.81;99111.30;262778;1104;114835;-72
2021/04/16 05:15:39;;;;;;;16.55;11.68;;;;;;;3.81;69.48;99115.88;263120;1100;114758;-72
2021/04/16 05:20:43;;;;;;;15.98;10.33;;;;;;;3.84;69.76;99117.52;263367;1104;114588;-72
2021/04/16 05:25:45;;;;;;;17.38;11.33;;;;;;;3.73;69.90;99129.27;263123;1100;114479;-71
2021/04/16 05:30:49;;;;;;;17.10;11.30;;;;;;;3.79;69.47;99122.95;263504;1104;114821;-72
2021/04/16 05:35:51;;;;;;;18.50;12.30;;;;;;;3.81;69.87;99123.78;263363;1099;114803;-73
2021/04/16 05:40:54;;;;;;;16.50;11.17;;;;;;;3.76;69.81;99117.79;263529;1104;114986;-74
2021/04/16 05:45:56;;;;;;;19.00;12.35;;;;;;;3.72;69.95;99121.44;263514;1104;114835;-74
2021/04/16 05:50:59;;;;;;;18.23;12.30;;;;;;;3.74;69.61;99115.22;263473;1104;115483;-74
2021/04/16 05:56:03;;;;;;;19.38;13.08;;;;;;;3.78;69.88;99111.57;263474;1099;114946;-73
2021/04/16 06:01:07;;;;;;;22.20;14.85;;;;;;;3.84;69.93;99113.15;262835;1104;114807;-73
2021/04/16 06:06:10;;;;;;;20.70;13.98;;;;;;;3.86;69.99;99115.72;263451;1099;114576;-74
2021/04/16 06:11:13;;;;;;;25.13;15.55;;;;;;;3.86;70.00;99111.30;260939;1100;114491;-76
2021/04/16 06:16:16;;;;;;;26.35;14.65;;;;;;;3.88;69.99;99103.38;263290;1100;114812;-75
2021/04/16 06:21:19;;;;;;;25.45;15.78;;;;;;;3.85;69.97;99109.59;262541;1101;114493;-76
2021/04/16 06:26:23;;;;;;;20.60;13.90;;;;;;;3.94;69.85;99106.66;257315;1104;114626;-77
2021/04/16 06:31:26;;;;;;;19.60;12.45;;;;;;;3.93;70.29;99104.92;262864;1104;115056;-76
2021/04/16 06:36:28;;;;;;;22.10;14.77;;;;;;;3.91;69.99;99104.13;263489;1104;115441;-75
2021/04/16 06:41:32;;;;;;;19.83;13.48;;;;;;;3.88;70.07;99098.11;263329;1100;114558;-74
2021/04/16 06:46:45;;;;;;;20.28;13.23;;;;;;;3.81;70.07;99093.97;263085;1101;114862;-73
2021/04/16 06:52:25;;;;;;;19.88;11.25;;;;;;;3.84;70.09;99091.20;263540;1104;114693;-73
2021/04/16 06:57:40;;;;;;;20.80;14.35;;;;;;;3.87;70.54;99097.22;262303;1099;114591;-76
2021/04/16 07:03:05;;;;;;;17.95;12.18;;;;;;;3.92;69.98;99099.72;263336;1104;114680;-72
2021/04/16 07:08:22;;;;;;;22.40;14.53;;;;;;;3.90;70.09;99101.53;263430;1099;114424;-72
2021/04/16 07:13:32;;;;;;;21.35;14.20;;;;;;;3.91;70.39;99112.03;263156;1104;114444;-76
2021/04/16 07:18:42;;;;;;;20.23;13.18;;;;;;;3.93;70.14;99107.55;260008;1101;115014;-72
2021/04/16 07:23:51;;;;;;;20.28;13.35;;;;;;;3.98;70.33;99103.00;262450;1101;114436;-74
2021/04/16 07:29:40;;;;;;;20.90;14.28;;;;;;;3.98;70.10;99102.15;263370;1104;114708;-75
2021/04/16 07:34:47;;;;;;;23.33;14.40;;;;;;;3.98;70.26;99099.52;259044;1098;114955;-75
2021/04/16 07:40:01;;;;;;;19.98;14.25;;;;;;;3.96;70.13;99114.49;261004;1104;114500;-75
2021/04/16 07:45:16;;;;;;;16.97;11.60;;;;;;;3.93;70.21;99118.08;261323;1104;114653;-75
2021/04/16 07:50:31;;;;;;;17.43;11.38;;;;;;;3.92;70.08;99108.47;262094;1104;114596;-74
2021/04/16 07:55:34;;;;;;;18.40;11.43;;;;;;;3.96;70.32;99114.49;263416;1099;115122;-73
2021/04/16 08:00:42;;;;;;;14.45;10.95;;;;;;;4.05;70.73;99122.09;263201;1104;115484;-73
2021/04/16 08:05:54;;;;;;;16.18;10.70;;;;;;;4.07;69.95;99129.92;263016;1099;114637;-73
2021/04/16 08:11:00;;;;;;;15.43;11.50;;;;;;;4.03;70.25;99135.29;263499;1104;114548;-74
2021/04/16 08:16:17;;;;;;;17.00;11.83;;;;;;;4.02;70.21;99130.94;263523;1099;114762;-74
2021/04/16 08:21:22;;;;;;;13.95;9.95;;;;;;;4.10;70.46;99127.19;263298;1104;114507;-74
2021/04/16 08:26:30;;;;;;;15.23;11.65;;;;;;;4.15;70.31;99127.91;263220;1098;114773;-75
2021/04/16 08:31:41;;;;;;;15.70;11.70;;;;;;;4.15;70.12;99120.86;262602;1104;115554;-74
2021/04/16 08:36:45;;;;;;;17.95;12.68;;;;;;;4.22;70.41;99127.63;262138;1099;114673;-74
2021/04/16 08:41:55;;;;;;;18.35;12.50;;;;;;;4.26;70.38;99131.88;263470;1104;114488;-74
2021/04/16 08:46:59;;;;;;;15.08;11.80;;;;;;;4.36;70.50;99126.28;263088;1099;114723;-74
2021/04/16 08:52:04;;;;;;;15.33;11.78;;;;;;;4.39;70.24;99136.72;262154;1099;114899;-74
2021/04/16 08:57:24;;;;;;;18.80;13.33;;;;;;;4.43;70.00;99135.69;263451;1099;114631;-74
2021/04/16 09:02:44;;;;;;;18.08;13.20;;;;;;;4.48;70.33;99128.47;263213;1104;114780;-74
2021/04/16 09:08:06;;;;;;;19.13;13.28;;;;;;;4.48;70.23;99134.63;263088;1098;114549;-82
2021/04/16 09:13:41;;;;;;;17.03;12.05;;;;;;;4.49;70.07;99130.20;263508;1102;114570;-81
2021/04/16 09:19:22;;;;;;;16.48;11.40;;;;;;;4.46;69.51;99139.08;263447;1099;114815;-81
2021/04/16 09:24:46;;;;;;;16.30;12.15;;;;;;;4.47;69.90;99124.13;263505;1104;115214;-76
2021/04/16 09:29:49;;;;;;;17.70;12.58;;;;;;;4.47;70.28;99143.42;263012;1099;114783;-74
2021/04/16 09:34:52;;;;;;;17.93;13.10;;;;;;;4.45;69.96;99150.54;263444;1102;114586;-74
2021/04/16 09:40:10;;;;;;;18.80;13.18;;;;;;;4.50;70.70;99132.77;263341;1099;114522;-76
2021/04/16 09:45:22;;;;;;;18.95;12.63;;;;;;;4.63;70.28;99130.56;263448;1104;114952;-75
2021/04/16 09:50:33;;;;;;;19.40;12.68;;;;;;;4.76;70.74;99132.77;263448;1099;114673;-74
2021/04/16 09:55:59;;;;;;;19.30;12.83;;;;;;;4.71;70.09;99133.77;263385;1101;114422;-75
2021/04/16 10:01:20;;;;;;;19.30;12.98;;;;;;;4.63;70.31;99140.25;263397;1099;114695;-77
2021/04/16 10:06:29;;;;;;;17.68;12.45;;;;;;;4.59;69.94;99128.11;263219;1104;114634;-78
2021/04/16 10:11:32;;;;;;;19.63;12.75;;;;;;;4.63;70.36;99135.84;263014;1100;114620;-77
2021/04/16 10:16:35;;;;;;;21.13;13.90;;;;;;;4.66;70.34;99132.23;261644;1104;114933;-77
2021/04/16 10:21:39;;;;;;;19.00;13.58;;;;;;;4.67;69.97;99134.80;263434;1099;115277;-75
2021/04/16 12:42:33;;;;;;;16.85;11.30;;;;;;;5.33;70.79;99142.88;260412;1099;114364;-80
2021/04/16 12:47:36;;;;;;;13.38;10.88;;;;;;;5.38;70.96;99143.55;263508;1104;114173;-76
2021/04/16 12:52:40;;;;;;;13.78;10.38;;;;;;;5.51;71.42;99137.80;262562;1098;114486;-85
2021/04/16 12:57:48;;;;;;;15.85;11.28;;;;;;;5.61;71.26;99137.36;263455;1104;114627;-84
2021/04/16 13:03:01;;;;;;;14.48;10.83;;;;;;;5.63;71.20;99145.20;263579;1099;114075;-77
2021/04/16 13:08:06;;;;;;;16.38;11.58;;;;;;;5.65;71.52;99143.38;263509;1104;114777;-79
2021/04/16 13:13:09;;;;;;;17.93;11.18;;;;;;;5.66;71.03;99140.66;263548;1098;114523;-80
2021/04/16 13:18:34;;;;;;;18.13;11.00;;;;;;;5.73;71.08;99137.77;263516;1104;114489;-80
2021/04/16 13:23:38;;;;;;;15.05;10.25;;;;;;;5.74;71.29;99145.65;263477;1099;114558;-80
2021/04/16 13:28:42;;;;;;;14.60;11.38;;;;;;;5.70;70.88;99139.60;263473;1104;114374;-79
2021/04/16 13:33:47;;;;;;;14.90;9.85;;;;;;;5.71;71.51;99148.41;263447;1099;114340;-79
2021/04/16 13:38:50;;;;;;;;;;;;;;;5.72;71.04;99144.84;263553;1104;114431;-76
2021/04/16 13:43:54;;;;;;;13.88;9.83;;;;;;;5.74;71.45;99157.97;263563;1098;101088;-76
2021/04/16 13:48:59;;;;;;;13.45;9.43;;;;;;;5.71;70.71;99158.97;263158;1104;114986;-78
2021/04/16 13:54:07;;;;;;;16.03;11.00;;;;;;;5.75;71.07;99155.28;263486;1099;114987;-78
2021/04/16 13:59:10;;;;;;;16.15;11.20;;;;;;;5.68;71.16;99162.59;263547;1104;114313;-77
2021/04/16 14:04:26;;;;;;;13.03;9.00;;;;;;;5.72;70.91;99159.83;263539;1099;114340;-80
2021/04/16 14:09:29;;;;;;;13.78;9.88;;;;;;;5.77;71.24;99158.70;263588;1104;114512;-79
2021/04/16 14:14:34;;;;;;;14.00;9.90;;;;;;;5.80;71.29;99160.36;263110;1097;114813;-79
2021/04/16 14:19:41;;;;;;;14.48;10.78;;;;;;;5.72;70.57;99159.83;262910;1104;114077;-76
2021/04/16 14:24:43;;;;;;;14.40;10.05;;;;;;;5.65;70.91;99156.57;263483;1098;114834;-77
2021/04/16 14:29:46;;;;;;;12.33;9.25;;;;;;;5.65;71.08;99169.77;263514;1104;114445;-77
2021/04/16 14:34:50;;;;;;;13.30;9.60;;;;;;;5.67;71.09;99165.27;263422;1098;114448;-76
2021/04/16 14:39:53;;;;;;;14.45;10.18;;;;;;;5.67;70.71;99162.63;263528;1104;114191;-76
2021/04/16 14:44:56;;;;;;;14.25;9.53;;;;;;;5.65;70.61;99162.70;263555;1099;114727;-77
2021/04/16 14:50:00;;;;;;;16.05;10.25;;;;;;;5.65;71.00;99175.05;263516;1104;114322;-77
2021/04/16 14:55:06;;;;;;;13.70;8.70;;;;;;;5.66;71.17;99182.05;263244;1098;114452;-77
2021/04/16 15:00:17;;;;;;;13.18;9.05;;;;;;;5.76;71.16;99177.26;263113;1104;113953;-78
2021/04/16 15:05:21;;;;;;;11.58;9.18;;;;;;;5.83;70.48;99181.38;263463;1098;114183;-68
2021/04/16 15:10:27;;;;;;;14.20;9.47;;;;;;;5.83;70.50;99176.94;263165;1104;114447;-66
2021/04/16 15:15:42;;;;;;;13.25;9.30;;;;;;;5.77;71.04;99173.69;263406;1100;114131;-68
2021/04/16 15:20:47;;;;;;;16.38;10.60;;;;;;;5.78;70.48;99176.28;263430;1104;113899;-66
2021/04/16 15:25:55;;;;;;;12.05;9.15;;;;;;;5.84;71.25;99178.69;263484;1098;114626;-67
2021/04/16 15:31:08;;;;;;;13.50;9.90;;;;;;;5.87;70.92;99175.03;263412;1104;114368;-68
2021/04/16 15:47:03;;;;;;;12.80;8.65;;;;;;;5.72;71.02;99179.16;263448;1098;100990;-68
2021/04/16 15:52:06;;;;;;;15.18;8.53;;;;;;;5.75;70.68;99191.39;263426;1104;115701;-66
2021/04/16 15:57:09;;;;;;;13.88;8.83;;;;;;;5.76;70.70;99185.18;263415;1098;115422;-66
2021/04/16 16:02:16;;;;;;;14.00;9.25;;;;;;;5.79;71.23;99196.48;263464;1104;114601;-74
2021/04/16 16:07:19;;;;;;;13.45;9.48;;;;;;;5.80;70.90;99195.55;263197;1098;114778;-67
2021/04/16 16:12:23;;;;;;;14.90;10.58;;;;;;;5.79;70.95;99188.56;263367;1104;115531;-67
2021/04/16 16:17:32;;;;;;;14.45;10.75;;;;;;;5.79;70.73;99198.27;263472;1099;114359;-67
2021/04/16 16:22:35;;;;;;;14.63;9.78;;;;;;;5.78;71.00;99196.55;263521;1104;114241;-72
2021/04/16 16:27:46;;;;;;;13.28;9.78;;;;;;;5.79;70.54;99200.91;263607;1098;114616;-72
2021/04/16 16:32:48;;;;;;;15.05;10.53;;;;;;;5.81;70.55;99199.05;263551;1104;114975;-72
2021/04/16 16:37:51;;;;;;;15.10;11.13;;;;;;;5.85;71.14;99204.16;263267;1097;114490;-72
2021/04/16 16:43:02;;;;;;;15.00;11.30;;;;;;;5.85;70.73;99198.88;260381;1104;114625;-74
2021/04/16 16:48:06;;;;;;;15.20;11.38;;;;;;;5.86;70.70;99200.59;263433;1098;114675;-72
2021/04/16 16:53:12;;;;;;;16.70;11.90;;;;;;;5.81;70.67;99213.13;263556;1103;115631;-76
2021/04/16 16:58:19;;;;;;;19.13;11.78;;;;;;;5.80;70.05;99211.39;262710;1099;114604;-74
2021/04/16 17:03:23;;;;;;;17.05;12.30;;;;;;;5.77;70.20;99214.15;263484;1104;114763;-74
2021/04/16 17:08:29;;;;;;;16.90;12.88;;;;;;;5.76;70.36;99219.51;263433;1098;114574;-71
2021/04/16 17:13:32;;;;;;;17.90;13.43;;;;;;;5.76;70.82;99212.44;263426;1103;114344;-71
2021/04/16 17:18:36;;;;;;;16.18;12.78;;;;;;;5.72;70.35;99225.84;263446;1098;114374;-71
2021/04/16 17:23:40;;;;;;;19.65;13.08;;;;;;;5.70;70.48;99220.59;263505;1104;115076;-72
2021/04/16 17:28:44;;;;;;;16.88;12.78;;;;;;;5.63;69.80;99225.26;263490;1099;114788;-74
2021/04/16 17:33:48;;;;;;;20.35;14.23;;;;;;;5.70;70.73;99233.80;263463;1104;115277;-69
2021/04/16 17:38:51;;;;;;;22.30;14.85;;;;;;;5.70;70.18;99226.73;263311;1099;114860;-70
2021/04/16 17:43:57;;;;;;;21.23;16.45;;;;;;;5.70;71.13;99228.52;263444;1104;114564;-72
2021/04/16 17:49:13;;;;;;;22.70;16.28;;;;;;;5.65;70.76;99233.98;263437;1099;114811;-67
2021/04/16 17:54:17;;;;;;;24.40;16.18;;;;;;;5.63;70.99;99238.45;263467;1101;114932;-71
2021/04/16 17:59:24;;;;;;;21.25;15.33;;;;;;;5.65;71.11;99235.78;263469;1099;115577;-68
2021/04/16 18:04:27;;;;;;;21.93;14.18;;;;;;;5.72;70.94;99237.25;263167;1104;114833;-67
2021/04/16 18:09:30;;;;;;;19.70;14.75;;;;;;;5.75;71.04;99241.56;263433;1099;114839;-73
2021/04/16 18:14:34;;;;;;;17.48;12.25;;;;;;;5.71;70.38;99240.83;262026;1104;114699;-69
2021/04/16 18:19:36;;;;;;;21.03;16.00;;;;;;;5.53;70.66;99257.35;263428;1099;116434;-70
2021/04/16 18:24:40;;;;;;;22.33;15.20;;;;;;;5.42;70.69;99255.13;263419;1101;114718;-69
2021/04/16 18:29:45;;;;;;;20.33;14.50;;;;;;;5.45;71.14;99265.57;263107;1099;114965;-69
2021/04/16 18:34:48;;;;;;;;;;;;;;;5.48;71.23;99273.38;262648;1104;115280;-68
2021/04/16 18:40:02;;;;;;;22.78;16.78;;;;;;;5.44;70.76;99271.77;263404;1099;100941;-68
2021/04/16 18:45:05;;;;;;;20.83;14.20;;;;;;;5.43;71.20;99277.95;263395;1104;115042;-71
2021/04/16 18:50:12;;;;;;;22.43;15.68;;;;;;;5.42;70.98;99274.45;263365;1099;114941;-70
2021/04/16 18:55:20;;;;;;;25.68;16.98;;;;;;;5.38;71.08;99274.64;263243;1104;115130;-69
2021/04/16 19:00:36;;;;;;;25.73;16.10;;;;;;;5.40;70.95;99280.70;262815;1099;114650;-70
2021/04/16 19:05:39;;;;;;;25.45;16.60;;;;;;;5.44;70.92;99282.33;263197;1104;115066;-70
2021/04/16 19:10:42;;;;;;;22.15;15.63;;;;;;;5.44;70.79;99287.61;262721;1099;115375;-70
2021/04/16 19:15:46;;;;;;;17.38;13.25;;;;;;;5.36;70.44;99279.95;263250;1104;114902;-70
2021/04/16 19:20:51;;;;;;;19.60;12.93;;;;;;;5.34;70.74;99279.17;263215;1100;115152;-69
2021/04/16 19:25:58;;;;;;;19.98;13.15;;;;;;;5.35;70.94;99285.30;263428;1104;114970;-69
2021/04/16 19:31:04;;;;;;;19.60;13.93;;;;;;;5.41;71.17;99285.08;263041;1099;115100;-72
2021/04/16 19:36:16;;;;;;;18.38;13.60;;;;;;;5.43;71.26;99285.86;262879;1100;115141;-70
2021/04/16 19:41:31;;;;;;;23.08;15.20;;;;;;;5.39;70.95;99287.76;263252;1100;115003;-71
2021/04/16 19:46:34;;;;;;;20.40;14.83;;;;;;;5.36;71.03;99279.95;263404;1102;114638;-70
2021/04/16 20:18:18;;;;;;;23.30;15.78;;;;;;;5.30;71.03;99274.92;263424;1102;114687;-71
2021/04/16 20:23:38;;;;;;;21.38;14.93;;;;;;;5.29;70.74;99272.33;263319;1100;114567;-73
2021/04/16 20:28:41;;;;;;;22.40;14.98;;;;;;;5.28;70.92;99270.62;263410;1104;114629;-74
2021/04/16 20:33:48;;;;;;;19.70;13.95;;;;;;;5.34;70.83;99267.76;263427;1099;115153;-72
2021/04/16 20:38:53;;;;;;;21.63;15.15;;;;;;;5.39;71.72;99277.20;263022;1104;115732;-72
2021/04/16 20:43:58;;;;;;;;;;;;;;;5.38;71.17;99283.41;263436;1099;114584;-73
2021/04/16 20:49:05;;;;;;;19.63;13.48;;;;;;;5.30;70.57;99284.59;263478;1103;100934;-73
2021/04/16 20:54:13;;;;;;;22.05;14.93;;;;;;;5.28;71.00;99287.30;263425;1099;114691;-73
2021/04/16 20:59:16;;;;;;;17.95;13.85;;;;;;;5.23;70.54;99281.34;263336;1103;114697;-73
2021/04/16 21:04:33;;;;;;;19.43;13.88;;;;;;;5.25;70.82;99282.13;263334;1098;114602;-73
2021/04/16 21:09:39;;;;;;;17.83;12.33;;;;;;;5.29;71.38;99285.52;263307;1104;115031;-74
2021/04/16 21:14:42;;;;;;;16.60;11.60;;;;;;;5.22;71.00;99287.52;263458;1099;115236;-73
2021/04/16 21:19:46;;;;;;;18.75;12.33;;;;;;;5.18;71.29;99278.00;263495;1102;114373;-72
2021/04/16 21:24:51;;;;;;;15.50;11.15;;;;;;;5.20;71.31;99286.73;263436;1099;114647;-74
2021/04/16 21:29:55;;;;;;;18.28;11.95;;;;;;;5.21;70.98;99280.53;263062;1104;115110;-71
2021/04/16 21:35:22;;;;;;;18.55;12.48;;;;;;;5.20;71.37;99277.03;263450;1099;114810;-73
2021/04/16 21:40:25;;;;;;;17.70;12.57;;;;;;;5.19;71.21;99274.44;263447;1104;114949;-72
2021/04/16 21:45:46;;;;;;;19.78;12.58;;;;;;;5.20;71.59;99278.81;263444;1099;114883;-73
2021/04/16 21:50:53;;;;;;;17.67;12.43;;;;;;;5.19;70.92;99288.48;263455;1104;114772;-71
2021/04/16 21:55:55;;;;;;;17.83;12.45;;;;;;;5.11;70.80;99287.91;263263;1099;115153;-70
2021/04/16 22:01:09;;;;;;;20.45;12.45;;;;;;;5.15;71.36;99289.52;263572;1101;114627;-72
2021/04/16 22:06:25;;;;;;;21.53;13.00;;;;;;;5.21;70.67;99286.66;263484;1099;114670;-72
2021/04/16 22:11:54;;;;;;;17.35;11.95;;;;;;;5.24;70.62;99285.70;263531;1103;114722;-73
2021/04/16 22:16:59;;;;;;;21.18;12.78;;;;;;;5.22;70.71;99279.60;262922;1100;114918;-71
2021/04/16 22:22:16;;;;;;;17.40;12.18;;;;;;;5.19;70.73;99271.80;263383;1104;114516;-70
2021/04/16 22:27:29;;;;;;;19.17;13.07;;;;;;;5.15;71.06;99275.47;263507;1099;115140;-70
2021/04/16 22:32:33;;;;;;;20.17;11.93;;;;;;;5.21;70.88;99264.70;263115;1104;114632;-70
2021/04/16 22:37:36;;;;;;;19.50;12.93;;;;;;;5.29;71.46;99273.18;263454;1100;114762;-70
2021/04/16 22:42:44;;;;;;;19.00;13.25;;;;;;;5.33;71.20;99268.65;263468;1104;114550;-70
2021/04/16 22:47:48;;;;;;;18.88;13.28;;;;;;;5.33;70.82;99272.17;263432;1099;114911;-72
2021/04/16 22:52:55;;;;;;;20.28;12.80;;;;;;;5.25;71.07;99271.58;263284;1104;114566;-70
2021/04/16 22:57:59;;;;;;;16.58;11.33;;;;;;;5.18;70.81;99270.94;263123;1100;114524;-71
2021/04/16 23:03:12;;;;;;;18.10;11.05;;;;;;;5.20;70.85;99263.84;263536;1100;114479;-71
2021/04/16 23:08:36;;;;;;;17.48;11.10;;;;;;;5.27;70.87;99266.27;263517;1098;115245;-70
2021/04/16 23:13:40;;;;;;;15.53;11.15;;;;;;;5.25;70.63;99257.53;263504;1104;115043;-70
2021/04/16 23:18:44;;;;;;;16.75;11.08;;;;;;;5.20;70.80;99255.93;263083;1100;114831;-70
2021/04/16 23:23:53;;;;;;;18.08;11.28;;;;;;;5.17;70.79;99248.13;263476;1104;114600;-72
2021/04/16 23:29:01;;;;;;;16.75;11.43;;;;;;;5.11;70.84;99250.13;263432;1099;115464;-73
2021/04/16 23:34:16;;;;;;;18.33;12.43;;;;;;;5.12;71.39;99243.92;263553;1104;114616;-71
2021/04/16 23:39:29;;;;;;;16.60;10.90;;;;;;;5.16;71.49;99242.89;263015;1099;115253;-73
2021/04/16 23:44:33;;;;;;;17.87;12.10;;;;;;;5.19;70.53;99237.50;263484;1104;115327;-73
2021/04/16 23:49:41;;;;;;;18.18;11.90;;;;;;;5.20;71.28;99232.19;263505;1098;115339;-72
2021/04/16 23:54:45;;;;;;;19.80;12.13;;;;;;;5.26;70.72;99228.44;263529;1101;115063;-70
2021/04/16 23:59:48;;;;;;;17.68;12.45;;;;;;;5.22;70.70;99226.84;263266;1100;114535;-70
